Terminal Aerodrome Forecast
Issued by NWS Wilmington, OH

Current Version | Previous Version | Graphics & Text | Print | Product List | Glossary On
Versions: 1 2 3 4 5 6 7 8 9 10 11 12 13 14 15 16 17 18 19 20 21 22 23 24 25 26
000
FTUS41 KILN 290539
TAFILN
TAF
KILN 290539Z 2906/3006 00000KT 3SM BR SKC
     FM290900 00000KT 1/2SM FG FEW250
     FM291300 25005KT P6SM FEW035 BKN150
     FM291900 27007KT P6SM VCTS BKN035CB
     FM292300 29007KT P6SM BKN035=

USA.gov is the U.S. government's official web portal to all federal, state and local government web resources and services.